Time;durP1;ratioP1;P1;durP2;ratioP2;P2;SDS_P1;SDS_P2;PMS_P1;PMS_P2;Temp;Humidity;BMP_temperature;BMP_pressure;BME280_temperature;BME280_humidity;BME280_pressure;Samples;Min_cycle;Max_cycle;Signal;HPM_P1;HPM_P2
2023/01/26 00:00:05;;;;;;;18.90;8.50;;;;;;;-0.27;60.80;101834.89;105401;1253;61211;-61
2023/01/26 00:02:33;;;;;;;16.40;5.20;;;;;;;-0.30;60.80;101830.96;105447;1259;74097;-61
2023/01/26 00:05:01;;;;;;;16.60;7.20;;;;;;;-0.35;60.96;101831.02;105483;1253;71228;-61
2023/01/26 00:07:30;;;;;;;15.70;8.10;;;;;;;-0.35;61.11;101829.64;105582;1254;73591;-61
2023/01/26 00:09:58;;;;;;;21.40;9.30;;;;;;;-0.33;61.17;101831.34;105491;1253;60746;-60
2023/01/26 00:12:26;;;;;;;15.40;7.70;;;;;;;-0.32;61.16;101829.26;105480;1253;61524;-60
2023/01/26 00:14:55;;;;;;;17.30;6.30;;;;;;;-0.32;61.12;101827.71;105471;1257;73836;-61
2023/01/26 00:17:25;;;;;;;19.10;6.60;;;;;;;-0.32;61.20;101824.42;105528;1253;71298;-61
2023/01/26 00:19:56;;;;;;;13.00;5.70;;;;;;;-0.30;61.11;101821.81;105800;1254;73711;-61
2023/01/26 00:22:25;;;;;;;15.60;7.50;;;;;;;-0.31;61.20;101825.96;105449;1253;60638;-61
2023/01/26 00:24:54;;;;;;;20.00;8.90;;;;;;;-0.31;61.17;101819.08;105587;1258;60185;-61
2023/01/26 00:27:23;;;;;;;18.20;6.80;;;;;;;-0.33;61.20;101820.98;105544;1254;73971;-61
2023/01/26 00:29:51;;;;;;;21.10;8.00;;;;;;;-0.32;61.17;101817.54;105371;1253;71286;-60
2023/01/26 00:32:20;;;;;;;16.70;8.70;;;;;;;-0.33;61.05;101815.65;105403;1253;73564;-60
2023/01/26 00:34:49;;;;;;;15.60;6.90;;;;;;;-0.31;60.84;101820.27;105583;1253;62060;-60
2023/01/26 00:37:17;;;;;;;15.70;6.40;;;;;;;-0.24;60.77;101820.01;105417;1253;61181;-60
2023/01/26 00:39:45;;;;;;;12.90;5.40;;;;;;;-0.14;60.81;101812.64;105747;1259;74117;-61
2023/01/26 00:42:14;;;;;;;11.20;4.60;;;;;;;-0.01;60.86;101807.48;105601;1253;71406;-61
2023/01/26 00:44:43;;;;;;;15.10;5.80;;;;;;;0.09;60.63;101801.14;105598;1253;73406;-60
2023/01/26 00:47:13;;;;;;;16.30;8.30;;;;;;;0.15;60.51;101801.57;105608;1259;59756;-61
2023/01/26 00:49:41;;;;;;;16.40;8.30;;;;;;;0.20;60.51;101799.62;105687;1253;61313;-61
2023/01/26 00:52:11;;;;;;;15.70;8.00;;;;;;;0.22;60.34;101798.02;105578;1253;73994;-61
2023/01/26 00:54:39;;;;;;;20.00;8.80;;;;;;;0.24;60.25;101795.91;105556;1257;70271;-59
2023/01/26 00:57:08;;;;;;;24.50;10.00;;;;;;;0.24;60.14;101793.86;105268;1253;73402;-60
2023/01/26 00:59:36;;;;;;;17.80;7.50;;;;;;;0.23;60.31;101795.08;105552;1253;59747;-60
2023/01/26 01:02:04;;;;;;;18.20;8.30;;;;;;;0.22;60.20;101798.02;105496;1253;61359;-62
2023/01/26 01:04:34;;;;;;;19.00;10.20;;;;;;;0.19;60.26;101793.41;105760;1257;74081;-62
2023/01/26 01:07:02;;;;;;;14.60;7.10;;;;;;;0.14;60.33;101788.83;105575;1256;70231;-62
2023/01/26 01:09:32;;;;;;;16.50;7.90;;;;;;;0.11;60.36;101786.44;105482;1257;73084;-60
2023/01/26 01:12:01;;;;;;;17.20;7.10;;;;;;;0.07;60.55;101782.18;105577;1256;59772;-60
2023/01/26 01:14:29;;;;;;;19.60;9.10;;;;;;;0.06;60.48;101780.30;105393;1253;61218;-60
2023/01/26 01:16:58;;;;;;;20.10;10.90;;;;;;;0.05;60.66;101781.36;105512;1258;73802;-61
2023/01/26 01:19:27;;;;;;;15.10;6.60;;;;;;;0.05;60.64;101779.11;106010;1258;69362;-61
2023/01/26 01:21:55;;;;;;;14.30;6.60;;;;;;;0.03;60.55;101776.20;105470;1259;73637;-61
2023/01/26 01:24:24;;;;;;;18.30;9.40;;;;;;;0.00;60.70;101766.59;105620;1254;60215;-61
2023/01/26 01:26:53;;;;;;;16.90;8.10;;;;;;;-0.02;60.84;101765.58;105896;1253;61305;-60
2023/01/26 01:29:21;;;;;;;20.90;8.20;;;;;;;-0.04;60.85;101759.04;105507;1257;74102;-60
2023/01/26 01:31:50;;;;;;;18.10;8.00;;;;;;;-0.04;61.01;101757.49;105664;1253;71193;-60
2023/01/26 01:34:18;;;;;;;18.80;9.00;;;;;;;-0.06;61.15;101757.02;105588;1253;73593;-60
2023/01/26 01:36:49;;;;;;;16.00;5.90;;;;;;;-0.06;61.12;101758.02;105526;1253;60410;-60
2023/01/26 01:39:17;;;;;;;16.40;8.00;;;;;;;-0.07;61.15;101755.64;105539;1253;61366;-60
2023/01/26 01:41:46;;;;;;;16.30;9.50;;;;;;;-0.08;61.30;101746.86;105623;1254;73834;-61
2023/01/26 01:44:19;;;;;;;17.20;7.30;;;;;;;-0.07;61.34;101744.09;105476;1253;70105;-61
2023/01/26 01:47:05;;;;;;;16.30;7.90;;;;;;;-0.08;61.30;101743.05;105481;1253;73517;-60
2023/01/26 01:49:36;;;;;;;18.20;7.00;;;;;;;0.01;61.26;101743.27;105518;1253;59745;-61
2023/01/26 01:52:16;;;;;;;14.90;6.80;;;;;;;0.14;61.15;101737.40;105481;1253;60340;-62
2023/01/26 01:55:06;;;;;;;15.20;6.70;;;;;;;0.25;60.92;101739.47;105568;1259;65074;-61
2023/01/26 01:57:45;;;;;;;14.70;6.60;;;;;;;0.34;60.77;101735.89;105413;1258;62332;-61
2023/01/26 02:00:17;;;;;;;14.10;6.60;;;;;;;0.42;60.57;101731.95;105597;1258;65046;-61
2023/01/26 02:05:53;;;;;;;20.20;8.50;;;;;;;0.52;60.38;101725.05;105570;1254;59672;-61
2023/01/26 02:08:25;;;;;;;14.30;7.30;;;;;;;0.53;60.45;101721.06;105391;1258;65094;-61
2023/01/26 02:10:54;;;;;;;17.00;6.70;;;;;;;0.53;60.24;101713.48;105481;1253;71471;-61
2023/01/26 02:13:23;;;;;;;15.60;6.70;;;;;;;0.52;60.11;101715.23;105527;1253;73144;-61
2023/01/26 02:18:09;;;;;;;17.70;7.00;;;;;;;0.34;60.64;101711.71;102730;1289;603184;-62
2023/01/26 02:20:42;;;;;;;15.90;7.90;;;;;;;0.45;60.21;101713.42;104571;1267;59389;-61
2023/01/26 02:23:48;;;;;;;18.60;8.00;;;;;;;0.46;60.14;101712.90;105014;1263;60508;-60
2023/01/26 02:26:21;;;;;;;16.00;7.50;;;;;;;0.44;60.19;101708.80;105995;1263;64429;-62
2023/01/26 02:28:54;;;;;;;15.80;7.20;;;;;;;0.42;60.17;101706.41;105025;1263;62635;-61
2023/01/26 02:31:23;;;;;;;14.50;6.60;;;;;;;0.39;60.21;101697.48;104950;1254;188251;-61
2023/01/26 02:33:54;;;;;;;21.20;8.20;;;;;;;0.35;60.29;101691.85;105257;1255;60537;-61
2023/01/26 02:36:28;;;;;;;19.70;6.80;;;;;;;0.31;60.33;101688.63;105197;1259;61117;-60
2023/01/26 02:39:15;;;;;;;16.80;7.00;;;;;;;0.27;60.41;101691.11;105172;1254;72118;-61
2023/01/26 02:44:31;;;;;;;14.60;6.60;;;;;;;0.21;60.74;101683.97;105273;1260;64934;-61
2023/01/26 02:47:00;;;;;;;15.10;7.00;;;;;;;0.20;60.92;101682.09;105295;1255;59954;-62
2023/01/26 02:49:46;;;;;;;17.60;8.40;;;;;;;0.17;60.81;101677.13;105516;1260;60621;-61
2023/01/26 02:52:19;;;;;;;17.20;7.20;;;;;;;0.13;60.97;101675.81;105402;1262;65445;-62
2023/01/26 02:57:40;;;;;;;16.90;7.70;;;;;;;0.06;61.17;101675.39;105437;1260;65309;-61
2023/01/26 03:00:11;;;;;;;15.10;8.40;;;;;;;0.06;61.36;101671.42;105318;1260;60488;-62
2023/01/26 03:02:40;;;;;;;13.70;7.10;;;;;;;0.07;61.37;101669.17;105475;1254;61360;-61
2023/01/26 03:05:09;;;;;;;19.40;8.30;;;;;;;0.06;61.32;101669.19;105172;1262;73745;-61
2023/01/26 03:07:38;;;;;;;14.40;5.60;;;;;;;0.11;61.29;101671.16;105402;1260;70972;-61
2023/01/26 03:10:07;;;;;;;17.00;6.30;;;;;;;0.24;61.21;101668.73;105423;1257;73810;-60
2023/01/26 03:12:39;;;;;;;17.20;6.30;;;;;;;0.33;61.18;101665.30;105091;1256;61986;-61
2023/01/26 03:29:14;;;;;;;17.00;7.60;;;;;;;0.51;60.62;101647.54;105274;1263;59554;-61
2023/01/26 03:31:43;;;;;;;17.70;7.40;;;;;;;0.47;60.54;101652.64;105227;1263;74014;-61
2023/01/26 03:34:11;;;;;;;16.50;7.30;;;;;;;0.42;60.59;101657.54;105341;1258;71350;-61
2023/01/26 03:36:40;;;;;;;14.30;7.60;;;;;;;0.36;60.59;101652.30;105152;1270;73487;-61
2023/01/26 03:41:06;;;;;;;16.80;8.00;;;;;;;0.27;60.72;101646.06;105027;1257;60529;-61
2023/01/26 03:56:18;;;;;;;17.90;9.10;;;;;;;-0.06;61.71;101642.80;105153;1258;59625;-60
2023/01/26 03:58:48;;;;;;;;;;;;;;;-0.07;61.90;101644.72;105019;1263;65032;-62
2023/01/26 04:01:19;;;;;;;21.70;8.10;;;;;;;-0.08;62.02;101643.70;105625;1257;71250;-61
2023/01/26 04:09:25;;;;;;;16.00;7.50;;;;;;;-0.13;62.26;101650.17;105256;1257;59648;-61
2023/01/26 04:11:53;;;;;;;22.60;9.20;;;;;;;-0.14;62.26;101647.59;105138;1260;73962;-61
2023/01/26 06:23:22;;;;;;;21.40;8.10;;;;;;;1.04;62.30;101650.70;105160;1291;601130;-90
2023/01/26 06:25:52;;;;;;;18.00;8.70;;;;;;;1.10;61.68;101649.37;107687;1269;57278;-90
2023/01/26 06:28:20;;;;;;;20.60;9.40;;;;;;;1.06;61.54;101643.91;107788;1263;60221;-92
2023/01/26 06:30:48;;;;;;;19.70;8.40;;;;;;;1.02;61.51;101641.58;107642;1260;73266;-91
2023/01/26 06:33:17;;;;;;;22.30;10.00;;;;;;;0.98;61.52;101632.67;107557;1264;70315;-93
2023/01/26 06:35:46;;;;;;;20.30;9.80;;;;;;;0.98;61.52;101634.39;107475;1259;206947;-94
2023/01/26 06:38:15;;;;;;;17.50;9.70;;;;;;;0.96;61.57;101635.65;108366;1257;60710;-93
2023/01/26 06:40:44;;;;;;;19.60;7.00;;;;;;;0.92;61.53;101638.84;108293;1257;60751;-91
2023/01/26 06:43:14;;;;;;;20.20;8.30;;;;;;;0.89;61.67;101641.83;107791;1258;73063;-90
2023/01/26 06:45:43;;;;;;;17.90;9.70;;;;;;;0.87;61.77;101646.69;108053;1257;70468;-89
2023/01/26 06:48:19;;;;;;;21.10;8.80;;;;;;;0.87;61.93;101648.27;107904;1255;73649;-90
2023/01/26 06:50:49;;;;;;;16.90;7.70;;;;;;;0.88;62.00;101646.67;108085;1254;60504;-90
2023/01/26 06:53:50;;;;;;;24.40;8.30;;;;;;;0.88;62.11;101647.20;108076;1253;61164;-89
2023/01/26 06:56:29;;;;;;;16.20;7.40;;;;;;;0.88;62.20;101648.94;108335;1254;65678;-88
2023/01/26 06:59:18;;;;;;;18.20;8.40;;;;;;;0.88;62.33;101648.05;108222;1254;62550;-88
2023/01/26 07:02:05;;;;;;;19.20;6.80;;;;;;;0.87;62.54;101645.33;108252;1253;65071;-89
2023/01/26 07:04:35;;;;;;;17.10;5.00;;;;;;;0.95;62.65;101648.64;108420;1260;61134;-89
2023/01/26 07:07:05;;;;;;;14.70;7.00;;;;;;;1.06;62.43;101643.05;107981;1261;61188;-89
2023/01/26 07:09:53;;;;;;;13.30;5.30;;;;;;;1.16;62.39;101643.38;108732;1254;65441;-89
2023/01/26 07:12:22;;;;;;;14.80;6.30;;;;;;;1.24;62.47;101645.80;108330;1254;71275;-89
2023/01/26 07:14:51;;;;;;;19.50;7.90;;;;;;;1.29;62.58;101643.79;108580;1254;73764;-89
2023/01/26 07:17:20;;;;;;;14.90;6.30;;;;;;;1.33;62.64;101645.60;108420;1257;60854;-89
2023/01/26 07:19:51;;;;;;;13.60;7.00;;;;;;;1.33;62.72;101646.48;108344;1260;61351;-87
2023/01/26 07:22:24;;;;;;;17.00;7.20;;;;;;;1.28;62.68;101646.40;108893;1254;73235;-89
2023/01/26 07:24:57;;;;;;;17.60;7.30;;;;;;;1.26;62.86;101645.41;108504;1253;62787;-90
2023/01/26 07:27:26;;;;;;;15.10;8.30;;;;;;;1.24;63.06;101649.40;108492;1253;73896;-90
2023/01/26 07:29:54;;;;;;;16.40;6.60;;;;;;;1.23;63.19;101645.79;108511;1254;59643;-88
2023/01/26 07:32:22;;;;;;;25.20;6.50;;;;;;;1.21;63.34;101646.04;107323;1255;60037;-87
2023/01/26 07:34:54;;;;;;;12.00;6.40;;;;;;;1.18;63.34;101644.73;107917;1259;74154;-87
2023/01/26 07:37:26;;;;;;;17.20;6.90;;;;;;;1.13;63.49;101641.01;107813;1253;71190;-88
2023/01/26 07:40:01;;;;;;;16.70;7.50;;;;;;;1.11;63.54;101639.33;107553;1255;64777;-88
2023/01/26 07:42:32;;;;;;;20.10;7.60;;;;;;;1.10;63.71;101641.77;107308;1254;60809;-88
2023/01/26 07:45:08;;;;;;;16.50;9.30;;;;;;;1.05;63.75;101643.06;107385;1253;60306;-87
2023/01/26 07:47:39;;;;;;;17.10;5.50;;;;;;;1.04;63.74;101640.33;107716;1253;74288;-87
2023/01/26 07:50:09;;;;;;;13.70;6.50;;;;;;;1.10;63.70;101638.46;107735;1254;71270;-87
2023/01/26 07:52:37;;;;;;;11.00;5.10;;;;;;;1.17;63.57;101640.05;108190;1254;73714;-87
2023/01/26 07:57:11;;;;;;;14.80;5.10;;;;;;;1.14;64.20;101634.94;104189;1291;601177;-61
2023/01/26 07:59:42;;;;;;;15.30;6.30;;;;;;;1.29;63.75;101633.24;104945;1268;59374;-59
2023/01/26 08:02:10;;;;;;;16.00;6.50;;;;;;;1.31;63.69;101625.06;106546;1267;59880;-61
2023/01/26 08:04:43;;;;;;;17.20;7.70;;;;;;;1.32;63.87;101625.91;106437;1267;72069;-63
2023/01/26 08:07:12;;;;;;;15.40;7.60;;;;;;;1.34;63.98;101624.16;105867;1256;70216;-62
2023/01/26 08:09:40;;;;;;;18.50;8.30;;;;;;;1.35;63.89;101626.56;106690;1256;183448;-62
2023/01/26 08:12:08;;;;;;;13.20;7.00;;;;;;;1.34;63.85;101625.18;105502;1253;60369;-60
2023/01/26 08:14:41;;;;;;;15.10;7.10;;;;;;;1.33;63.85;101632.30;107610;1253;61051;-61
2023/01/26 08:17:16;;;;;;;13.40;6.60;;;;;;;1.31;63.87;101628.02;105536;1254;71940;-60
2023/01/26 08:19:48;;;;;;;17.20;8.60;;;;;;;1.28;63.88;101632.58;105780;1253;71125;-61
2023/01/26 08:22:16;;;;;;;19.00;8.00;;;;;;;1.24;63.91;101629.20;105354;1256;73733;-60
2023/01/26 08:24:44;;;;;;;18.10;7.50;;;;;;;1.20;63.98;101638.27;105550;1253;59619;-61
2023/01/26 08:27:14;;;;;;;16.50;7.30;;;;;;;1.16;64.03;101636.46;105585;1253;61317;-61
2023/01/26 08:29:43;;;;;;;13.20;6.10;;;;;;;1.10;64.14;101634.49;105637;1253;73925;-60
2023/01/26 08:32:11;;;;;;;17.20;7.20;;;;;;;1.06;64.16;101633.38;105735;1253;70413;-61
2023/01/26 08:34:40;;;;;;;18.80;8.10;;;;;;;1.02;64.33;101634.16;105742;1257;73661;-61
2023/01/26 08:37:11;;;;;;;12.10;5.50;;;;;;;1.05;64.38;101630.98;105514;1254;61898;-61
2023/01/26 08:39:39;;;;;;;14.40;6.20;;;;;;;1.10;64.26;101632.09;105460;1253;60844;-61
2023/01/26 08:42:08;;;;;;;14.10;5.60;;;;;;;1.13;64.30;101631.15;105476;1253;73925;-61
2023/01/26 08:44:36;;;;;;;14.40;5.80;;;;;;;1.22;64.39;101632.86;105512;1253;71062;-63
2023/01/26 08:47:05;;;;;;;11.10;5.70;;;;;;;1.36;64.35;101629.28;105776;1258;73334;-62
2023/01/26 08:49:36;;;;;;;14.40;6.50;;;;;;;1.45;64.23;101626.33;105390;1253;60406;-61
2023/01/26 08:52:05;;;;;;;20.40;8.20;;;;;;;1.48;64.03;101624.36;105755;1253;61540;-62
2023/01/26 08:54:36;;;;;;;16.30;7.00;;;;;;;1.46;63.79;101619.04;105595;1257;73698;-62
2023/01/26 08:57:04;;;;;;;16.20;7.40;;;;;;;1.46;63.89;101615.58;105347;1253;71512;-62
2023/01/26 08:59:32;;;;;;;16.90;8.50;;;;;;;1.43;63.90;101615.12;105568;1253;72512;-61
2023/01/26 09:02:00;;;;;;;20.40;8.70;;;;;;;1.41;63.93;101612.94;105391;1253;60492;-61
2023/01/26 09:04:29;;;;;;;19.80;8.50;;;;;;;1.39;63.99;101611.42;105745;1254;59653;-61
2023/01/26 09:06:59;;;;;;;20.90;8.30;;;;;;;1.37;64.07;101604.73;105643;1253;74055;-62
2023/01/26 09:09:28;;;;;;;20.60;8.90;;;;;;;1.34;64.13;101600.45;106099;1254;71707;-63
2023/01/26 09:11:56;;;;;;;22.30;9.30;;;;;;;1.33;64.10;101595.80;105343;1258;73638;-60
2023/01/26 09:14:27;;;;;;;17.10;9.10;;;;;;;1.33;64.20;101594.43;105596;1253;60583;-61
2023/01/26 09:16:56;;;;;;;22.00;8.40;;;;;;;1.32;64.06;101599.12;105513;1253;59629;-61
2023/01/26 09:19:24;;;;;;;24.40;9.80;;;;;;;1.27;64.11;101598.53;105856;1252;71849;-60
2023/01/26 09:21:53;;;;;;;18.60;6.10;;;;;;;1.26;64.13;101594.75;105254;1259;70966;-62
2023/01/26 09:24:22;;;;;;;17.40;7.50;;;;;;;1.36;64.19;101592.46;105487;1258;72695;-61
2023/01/26 09:26:51;;;;;;;13.60;6.20;;;;;;;1.48;63.93;101593.23;105240;1256;60906;-63
2023/01/26 09:29:28;;;;;;;16.60;6.80;;;;;;;1.59;63.90;101592.27;105863;1255;61447;-62
2023/01/26 09:34:27;;;;;;;19.60;9.50;;;;;;;1.65;64.02;101590.94;102245;1295;601447;-61
2023/01/26 09:36:55;;;;;;;17.10;7.70;;;;;;;1.82;63.50;101591.73;104517;1267;60657;-62
2023/01/26 09:39:24;;;;;;;19.80;9.30;;;;;;;1.89;63.20;101592.09;105574;1265;60436;-64
2023/01/26 09:42:16;;;;;;;17.70;8.10;;;;;;;1.95;62.74;101587.27;104753;1264;72023;-62
2023/01/26 09:44:51;;;;;;;13.60;7.10;;;;;;;1.98;62.49;101582.70;104771;1266;70021;-62
2023/01/26 09:47:30;;;;;;;18.00;8.50;;;;;;;2.01;62.34;101577.27;104719;1266;244610;-61
2023/01/26 09:51:50;;;;;;;19.70;7.70;;;;;;;1.88;62.66;101577.41;101954;1295;601230;-63
2023/01/26 09:54:30;;;;;;;18.20;7.20;;;;;;;2.05;61.79;101573.17;104712;1269;59531;-62
2023/01/26 09:57:07;;;;;;;15.80;7.10;;;;;;;2.06;61.17;101569.37;105277;1267;61334;-62
2023/01/26 10:00:08;;;;;;;15.50;7.20;;;;;;;2.07;61.21;101570.73;104578;1267;72932;-61
2023/01/26 10:03:08;;;;;;;21.50;7.60;;;;;;;2.09;61.14;101564.80;104851;1270;61689;-60
2023/01/26 10:05:36;;;;;;;15.70;7.10;;;;;;;2.11;61.02;101560.73;104776;1264;169001;-61
2023/01/26 10:08:11;;;;;;;15.40;6.60;;;;;;;2.11;60.75;101552.44;105066;1263;59356;-63
2023/01/26 10:10:45;;;;;;;16.80;6.80;;;;;;;2.06;60.27;101552.04;104911;1264;60004;-62
2023/01/26 10:13:14;;;;;;;18.30;7.90;;;;;;;2.02;60.43;101546.95;104827;1264;73565;-61
2023/01/26 10:15:55;;;;;;;13.10;6.20;;;;;;;2.04;60.86;101543.45;104619;1263;71938;-61
2023/01/26 10:19:05;;;;;;;11.90;4.60;;;;;;;2.06;60.10;101544.06;104786;1264;64718;-61
2023/01/26 10:21:37;;;;;;;10.30;4.60;;;;;;;2.12;59.06;101544.44;104862;1263;59771;-61
2023/01/26 10:24:08;;;;;;;11.90;4.30;;;;;;;2.22;58.45;101544.00;104960;1260;60533;-63
2023/01/26 10:26:37;;;;;;;12.70;4.80;;;;;;;2.30;57.66;101539.11;104871;1261;73158;-62
2023/01/26 10:29:12;;;;;;;14.30;6.00;;;;;;;2.31;57.19;101532.35;105148;1264;70963;-61
2023/01/26 10:31:40;;;;;;;14.40;5.30;;;;;;;2.34;57.36;101521.19;105008;1260;72425;-62
2023/01/26 10:34:23;;;;;;;12.50;5.60;;;;;;;2.39;57.31;101518.60;105007;1260;60313;-62
2023/01/26 10:37:25;;;;;;;12.60;5.80;;;;;;;2.44;57.07;101513.62;104945;1261;61349;-60
2023/01/26 10:39:56;;;;;;;;;;;;;;;2.48;57.34;101513.51;105034;1261;65735;-62
2023/01/26 10:42:26;;;;;;;17.70;7.10;;;;;;;2.52;57.77;101515.64;104980;1260;71289;-61
2023/01/26 10:44:55;;;;;;;15.90;7.80;;;;;;;2.54;57.28;101513.69;104938;1264;72284;-61
2023/01/26 10:47:27;;;;;;;16.50;6.20;;;;;;;2.52;56.79;101519.13;105011;1260;60670;-61
2023/01/26 10:50:14;;;;;;;18.20;7.30;;;;;;;2.44;56.89;101519.15;104987;1260;61071;-61
2023/01/26 10:53:00;;;;;;;17.40;6.90;;;;;;;2.38;56.97;101515.52;104979;1264;65489;-63
2023/01/26 10:55:32;;;;;;;23.80;9.10;;;;;;;2.33;57.08;101512.53;105142;1260;62588;-61
2023/01/26 10:58:00;;;;;;;19.10;9.00;;;;;;;2.30;57.04;101509.35;104932;1259;73955;-62
2023/01/26 11:00:31;;;;;;;18.90;8.40;;;;;;;2.28;57.12;101500.20;104921;1261;60629;-61
2023/01/26 11:03:17;;;;;;;16.90;7.10;;;;;;;2.28;57.20;101500.39;104972;1260;60245;-62
2023/01/26 11:05:50;;;;;;;11.90;5.50;;;;;;;2.28;56.89;101501.95;105037;1260;65457;-62
2023/01/26 11:08:33;;;;;;;17.50;7.00;;;;;;;2.25;56.34;101498.39;104835;1261;71002;-61
2023/01/26 11:11:02;;;;;;;14.50;5.70;;;;;;;2.20;56.61;101493.67;105092;1261;65047;-63
2023/01/26 11:13:31;;;;;;;14.20;7.50;;;;;;;2.18;56.57;101494.76;105032;1261;60533;-60
2023/01/26 11:16:10;;;;;;;22.90;9.40;;;;;;;2.18;56.87;101494.42;109346;1253;61593;-61
2023/01/26 11:18:59;;;;;;;15.70;8.00;;;;;;;2.19;56.98;101487.13;109380;1254;72958;-62
2023/01/26 11:22:07;;;;;;;16.90;7.30;;;;;;;2.21;57.15;101482.41;109092;1254;61411;-62
2023/01/26 11:24:43;;;;;;;23.80;8.90;;;;;;;2.27;57.28;101481.90;106876;1256;64131;-62
2023/01/26 11:27:26;;;;;;;15.00;7.10;;;;;;;2.29;56.79;101480.97;105870;1254;59736;-61
2023/01/26 11:30:05;;;;;;;18.60;8.40;;;;;;;2.29;56.63;101482.52;105946;1254;59842;-61
2023/01/26 11:32:49;;;;;;;14.90;7.30;;;;;;;2.27;56.68;101478.61;105706;1256;65456;-61
2023/01/26 11:35:55;;;;;;;19.50;10.50;;;;;;;2.24;56.72;101479.70;105811;1254;62656;-60
2023/01/26 11:38:29;;;;;;;19.20;7.60;;;;;;;2.21;56.80;101476.00;105635;1254;65108;-62
2023/01/26 11:40:57;;;;;;;14.50;6.90;;;;;;;2.15;56.79;101471.66;105502;1256;59746;-61
2023/01/26 11:43:42;;;;;;;20.40;7.90;;;;;;;2.12;56.71;101468.98;105555;1252;61354;-61
2023/01/26 11:46:32;;;;;;;19.80;9.70;;;;;;;2.07;56.68;101468.25;105566;1254;65408;-63
2023/01/26 11:49:36;;;;;;;19.50;6.60;;;;;;;2.02;56.69;101469.23;105546;1254;62605;-62
2023/01/26 11:52:18;;;;;;;14.70;5.70;;;;;;;1.99;56.52;101469.14;105785;1254;64857;-61
2023/01/26 11:54:55;;;;;;;14.40;6.40;;;;;;;1.98;56.69;101471.59;105521;1252;59703;-61
2023/01/26 11:57:33;;;;;;;18.10;7.90;;;;;;;1.96;56.76;101470.94;105617;1253;59609;-61
2023/01/26 12:00:13;;;;;;;18.40;6.50;;;;;;;1.95;56.77;101467.00;105946;1255;65662;-60
2023/01/26 12:03:14;;;;;;;17.00;6.40;;;;;;;1.95;56.93;101469.60;105509;1254;62451;-60
2023/01/26 12:05:44;;;;;;;12.60;6.50;;;;;;;1.93;57.06;101462.73;105366;1254;64785;-61
2023/01/26 12:08:16;;;;;;;15.20;7.00;;;;;;;1.92;56.95;101460.00;105265;1254;60267;-62
2023/01/26 12:10:49;;;;;;;15.90;6.20;;;;;;;1.91;57.07;101454.31;105896;1252;61445;-61
2023/01/26 12:13:37;;;;;;;12.10;5.10;;;;;;;1.89;57.02;101454.20;105499;1254;73968;-60
2023/01/26 12:16:13;;;;;;;16.50;8.30;;;;;;;1.87;57.12;101449.73;105774;1254;61477;-61
2023/01/26 12:18:46;;;;;;;15.40;6.30;;;;;;;1.85;57.06;101445.98;105528;1256;65304;-60
2023/01/26 12:21:29;;;;;;;15.20;6.50;;;;;;;1.82;57.26;101446.92;105555;1253;59640;-61
2023/01/26 12:24:01;;;;;;;16.10;6.80;;;;;;;1.80;57.16;101449.58;105379;1254;61306;-61
2023/01/26 12:26:34;;;;;;;14.40;5.90;;;;;;;1.77;57.31;101448.98;105498;1256;65597;-60
2023/01/26 12:29:17;;;;;;;14.30;7.60;;;;;;;1.74;57.40;101449.91;105638;1252;62689;-59
2023/01/26 12:32:08;;;;;;;17.20;6.20;;;;;;;1.73;57.65;101449.09;105601;1256;63737;-61
2023/01/26 12:34:37;;;;;;;14.60;6.90;;;;;;;1.74;57.73;101449.41;105584;1254;59615;-61
2023/01/26 12:37:24;;;;;;;20.50;7.10;;;;;;;1.74;57.90;101448.55;105457;1253;61040;-59
2023/01/26 12:40:14;;;;;;;16.60;6.80;;;;;;;1.75;57.81;101445.21;105720;1256;65403;-61
2023/01/26 12:42:52;;;;;;;12.20;5.70;;;;;;;1.75;57.87;101446.77;105511;1254;62660;-63
2023/01/26 12:45:35;;;;;;;12.00;5.90;;;;;;;1.75;57.75;101445.72;105550;1254;65035;-60
2023/01/26 12:48:10;;;;;;;14.40;6.00;;;;;;;1.75;57.86;101448.16;105503;1254;59737;-61
2023/01/26 12:50:53;;;;;;;15.70;7.10;;;;;;;1.74;57.67;101449.57;105609;1254;59729;-60
2023/01/26 12:53:32;;;;;;;17.60;6.70;;;;;;;1.72;57.58;101444.26;105537;1256;65264;-61
2023/01/26 12:56:18;;;;;;;16.40;7.00;;;;;;;1.70;57.60;101440.84;105578;1256;62733;-61
2023/01/26 12:58:47;;;;;;;21.60;8.20;;;;;;;1.69;57.65;101433.95;105618;1254;65569;-62
2023/01/26 13:01:20;;;;;;;17.80;6.80;;;;;;;1.68;57.83;101425.33;105398;1257;59646;-61
2023/01/26 13:03:57;;;;;;;18.10;7.90;;;;;;;1.67;58.04;101420.67;105499;1256;59582;-64
2023/01/26 13:06:25;;;;;;;12.60;6.40;;;;;;;1.68;58.28;101412.86;106032;1257;65210;-61
2023/01/26 13:08:56;;;;;;;12.80;5.40;;;;;;;1.76;58.38;101412.67;105510;1256;70375;-64
2023/01/26 13:11:38;;;;;;;15.30;7.00;;;;;;;1.88;58.41;101421.34;105504;1254;65410;-62
2023/01/26 13:14:43;;;;;;;13.60;5.90;;;;;;;2.02;58.63;101429.44;105973;1254;59805;-60
2023/01/26 13:17:13;;;;;;;10.90;4.20;;;;;;;2.16;58.42;101431.63;106133;1253;59743;-61
2023/01/26 13:19:42;;;;;;;15.20;5.10;;;;;;;2.26;58.11;101430.67;105783;1254;65506;-64
2023/01/26 13:22:22;;;;;;;15.10;5.50;;;;;;;2.27;57.98;101429.95;105534;1256;61679;-61
2023/01/26 13:24:54;;;;;;;15.90;6.70;;;;;;;2.25;57.81;101435.02;105576;1253;65049;-62
2023/01/26 13:27:38;;;;;;;13.70;6.90;;;;;;;2.20;57.96;101436.19;105595;1254;59601;-61
2023/01/26 13:30:22;;;;;;;15.80;8.50;;;;;;;2.17;58.22;101433.70;105571;1254;60172;-61
2023/01/26 13:33:04;;;;;;;15.00;7.70;;;;;;;2.14;58.54;101432.73;105464;1254;64442;-61
2023/01/26 13:35:32;;;;;;;14.50;7.30;;;;;;;2.11;58.77;101435.75;105588;1259;61765;-61
2023/01/26 13:38:01;;;;;;;17.40;7.30;;;;;;;2.07;58.83;101432.25;105179;1259;73418;-61
2023/01/26 13:40:34;;;;;;;19.40;9.10;;;;;;;2.01;58.98;101433.43;105483;1254;59653;-61
2023/01/26 13:43:06;;;;;;;21.80;8.70;;;;;;;1.94;59.28;101431.21;105867;1255;59663;-60
2023/01/26 13:45:58;;;;;;;;;;;;;;;1.87;59.49;101427.23;105675;1254;65128;-59
2023/01/26 13:48:26;;;;;;;20.50;8.30;;;;;;;1.82;59.70;101429.97;105521;1254;62852;-61
2023/01/26 13:50:59;;;;;;;20.40;6.90;;;;;;;1.76;59.78;101424.44;105580;1254;63806;-61
2023/01/26 13:53:42;;;;;;;17.10;6.50;;;;;;;1.72;59.89;101424.38;105542;1254;60236;-60
2023/01/26 13:56:23;;;;;;;25.90;8.80;;;;;;;1.66;59.97;101426.60;105572;1252;59650;-60
2023/01/26 14:01:28;;;;;;;19.70;8.50;;;;;;;1.49;60.61;101420.45;103543;1292;601224;-60
2023/01/26 14:04:03;;;;;;;14.60;6.80;;;;;;;1.60;60.37;101424.34;106506;1264;59901;-60
2023/01/26 14:06:34;;;;;;;17.10;7.20;;;;;;;1.69;60.28;101422.88;105937;1263;59625;-59
2023/01/26 14:09:03;;;;;;;14.30;6.70;;;;;;;1.78;60.32;101423.50;105414;1270;64532;-60
2023/01/26 14:11:32;;;;;;;19.30;7.40;;;;;;;1.88;60.29;101423.58;105297;1268;62637;-60
2023/01/26 14:14:00;;;;;;;17.50;7.20;;;;;;;1.96;60.33;101422.33;104950;1266;180336;-61
2023/01/26 14:16:36;;;;;;;23.60;8.30;;;;;;;1.99;60.03;101417.73;105990;1254;59435;-61
2023/01/26 14:19:16;;;;;;;18.10;9.00;;;;;;;1.97;59.88;101418.14;107000;1254;59228;-62
2023/01/26 14:21:58;;;;;;;18.10;8.70;;;;;;;1.96;59.97;101409.53;105729;1256;64590;-60
2023/01/26 14:24:32;;;;;;;19.80;9.00;;;;;;;1.93;59.98;101407.55;105761;1260;62673;-61
2023/01/26 14:27:05;;;;;;;15.00;7.40;;;;;;;1.90;60.14;101407.80;105603;1261;65280;-60
2023/01/26 14:29:36;;;;;;;19.40;9.00;;;;;;;1.86;60.16;101399.77;105769;1259;59626;-61
2023/01/26 14:32:11;;;;;;;23.10;8.30;;;;;;;1.83;60.23;101399.16;105771;1258;59587;-61
2023/01/26 14:34:51;;;;;;;15.90;8.00;;;;;;;1.79;60.21;101404.10;105526;1254;65727;-62
2023/01/26 14:37:21;;;;;;;19.00;8.70;;;;;;;1.74;60.21;101405.80;105544;1254;61491;-62
2023/01/26 14:40:17;;;;;;;14.50;6.80;;;;;;;1.68;60.34;101403.52;105650;1255;72992;-60
2023/01/26 14:42:49;;;;;;;15.50;7.40;;;;;;;1.63;60.40;101406.42;105417;1254;59620;-62
2023/01/26 14:45:18;;;;;;;16.80;7.70;;;;;;;1.60;60.47;101406.35;105780;1254;59650;-62
2023/01/26 14:47:47;;;;;;;14.50;6.30;;;;;;;1.55;60.53;101406.13;105226;1259;74147;-62
2023/01/26 14:50:22;;;;;;;19.80;9.90;;;;;;;1.52;60.57;101405.34;105379;1260;71161;-59